sensor_id;sensor_type;location;lat;lon;timestamp;P1;durP1;ratioP1;P2;durP2;ratioP2
72060;SDS011;59925;52.136;5.420;2023-07-02T00:02:14;7.22;;;2.90;;
72060;SDS011;59925;52.136;5.420;2023-07-02T00:04:45;7.18;;;2.72;;
72060;SDS011;59925;52.136;5.420;2023-07-02T00:07:12;7.72;;;2.55;;
72060;SDS011;59925;52.136;5.420;2023-07-02T00:09:41;6.83;;;2.97;;
72060;SDS011;59925;52.136;5.420;2023-07-02T00:12:07;6.88;;;2.83;;
72060;SDS011;59925;52.136;5.420;2023-07-02T00:14:34;7.28;;;2.50;;
72060;SDS011;59925;52.136;5.420;2023-07-02T00:17:01;6.90;;;2.72;;
72060;SDS011;59925;52.136;5.420;2023-07-02T00:19:27;8.18;;;2.70;;
72060;SDS011;59925;52.136;5.420;2023-07-02T00:21:54;7.57;;;3.50;;
72060;SDS011;59925;52.136;5.420;2023-07-02T00:24:21;10.95;;;2.53;;
72060;SDS011;59925;52.136;5.420;2023-07-02T00:26:48;10.15;;;2.72;;
72060;SDS011;59925;52.136;5.420;2023-07-02T00:29:15;7.93;;;2.67;;
72060;SDS011;59925;52.136;5.420;2023-07-02T00:31:41;6.43;;;2.67;;
72060;SDS011;59925;52.136;5.420;2023-07-02T00:34:08;4.53;;;2.20;;
72060;SDS011;59925;52.136;5.420;2023-07-02T00:36:34;6.82;;;2.45;;
72060;SDS011;59925;52.136;5.420;2023-07-02T00:39:01;9.10;;;2.60;;
72060;SDS011;59925;52.136;5.420;2023-07-02T00:41:28;8.18;;;2.40;;
72060;SDS011;59925;52.136;5.420;2023-07-02T00:43:54;7.13;;;2.40;;
72060;SDS011;59925;52.136;5.420;2023-07-02T00:46:22;6.13;;;2.63;;
72060;SDS011;59925;52.136;5.420;2023-07-02T00:48:52;6.68;;;2.78;;
72060;SDS011;59925;52.136;5.420;2023-07-02T00:51:24;9.05;;;3.40;;
72060;SDS011;59925;52.136;5.420;2023-07-02T00:53:56;9.10;;;2.95;;
72060;SDS011;59925;52.136;5.420;2023-07-02T00:56:24;11.70;;;3.05;;
72060;SDS011;59925;52.136;5.420;2023-07-02T00:58:55;6.33;;;3.00;;
72060;SDS011;59925;52.136;5.420;2023-07-02T01:01:25;10.02;;;2.92;;
72060;SDS011;59925;52.136;5.420;2023-07-02T01:03:58;9.88;;;3.20;;
72060;SDS011;59925;52.136;5.420;2023-07-02T01:06:30;8.82;;;2.88;;
72060;SDS011;59925;52.136;5.420;2023-07-02T01:08:59;9.15;;;3.35;;
72060;SDS011;59925;52.136;5.420;2023-07-02T01:14:15;12.95;;;3.45;;
72060;SDS011;59925;52.136;5.420;2023-07-02T01:16:48;10.60;;;3.50;;
72060;SDS011;59925;52.136;5.420;2023-07-02T01:22:08;9.75;;;3.78;;
72060;SDS011;59925;52.136;5.420;2023-07-02T01:24:36;10.93;;;3.70;;
72060;SDS011;59925;52.136;5.420;2023-07-02T01:27:03;11.48;;;3.42;;
72060;SDS011;59925;52.136;5.420;2023-07-02T01:29:30;10.57;;;3.08;;
72060;SDS011;59925;52.136;5.420;2023-07-02T01:31:57;7.18;;;2.75;;
72060;SDS011;59925;52.136;5.420;2023-07-02T01:34:24;9.68;;;3.58;;
72060;SDS011;59925;52.136;5.420;2023-07-02T01:36:50;12.30;;;3.47;;
72060;SDS011;59925;52.136;5.420;2023-07-02T01:39:17;8.27;;;3.35;;
72060;SDS011;59925;52.136;5.420;2023-07-02T01:41:45;9.15;;;3.70;;
72060;SDS011;59925;52.136;5.420;2023-07-02T01:44:15;10.23;;;3.33;;
72060;SDS011;59925;52.136;5.420;2023-07-02T01:46:43;13.48;;;3.58;;
72060;SDS011;59925;52.136;5.420;2023-07-02T01:49:10;10.60;;;3.73;;
72060;SDS011;59925;52.136;5.420;2023-07-02T01:51:36;8.80;;;3.70;;
72060;SDS011;59925;52.136;5.420;2023-07-02T01:54:04;11.15;;;4.07;;
72060;SDS011;59925;52.136;5.420;2023-07-02T01:56:31;12.90;;;3.63;;
72060;SDS011;59925;52.136;5.420;2023-07-02T01:58:58;9.20;;;3.63;;
72060;SDS011;59925;52.136;5.420;2023-07-02T02:01:25;9.83;;;4.13;;
72060;SDS011;59925;52.136;5.420;2023-07-02T02:03:52;11.65;;;3.97;;
72060;SDS011;59925;52.136;5.420;2023-07-02T02:06:18;10.27;;;4.25;;
72060;SDS011;59925;52.136;5.420;2023-07-02T02:08:45;8.95;;;3.63;;
72060;SDS011;59925;52.136;5.420;2023-07-02T02:11:11;12.30;;;4.45;;
72060;SDS011;59925;52.136;5.420;2023-07-02T02:13:38;14.63;;;3.83;;
72060;SDS011;59925;52.136;5.420;2023-07-02T02:16:05;12.70;;;4.03;;
72060;SDS011;59925;52.136;5.420;2023-07-02T02:18:32;13.15;;;4.43;;
72060;SDS011;59925;52.136;5.420;2023-07-02T02:20:58;9.55;;;3.53;;
72060;SDS011;59925;52.136;5.420;2023-07-02T02:23:25;13.55;;;3.83;;
72060;SDS011;59925;52.136;5.420;2023-07-02T02:25:54;13.67;;;4.77;;
72060;SDS011;59925;52.136;5.420;2023-07-02T02:28:20;12.57;;;3.92;;
72060;SDS011;59925;52.136;5.420;2023-07-02T02:30:47;9.05;;;3.45;;
72060;SDS011;59925;52.136;5.420;2023-07-02T02:33:14;15.38;;;3.90;;
72060;SDS011;59925;52.136;5.420;2023-07-02T02:35:41;10.40;;;4.00;;
72060;SDS011;59925;52.136;5.420;2023-07-02T02:38:07;10.87;;;4.23;;
72060;SDS011;59925;52.136;5.420;2023-07-02T02:40:34;12.32;;;4.57;;
72060;SDS011;59925;52.136;5.420;2023-07-02T02:43:01;15.48;;;4.10;;
72060;SDS011;59925;52.136;5.420;2023-07-02T02:45:27;12.52;;;4.60;;
72060;SDS011;59925;52.136;5.420;2023-07-02T02:47:55;12.43;;;4.18;;
72060;SDS011;59925;52.136;5.420;2023-07-02T02:50:22;12.17;;;4.27;;
72060;SDS011;59925;52.136;5.420;2023-07-02T02:52:49;11.43;;;4.32;;
72060;SDS011;59925;52.136;5.420;2023-07-02T02:55:15;12.50;;;4.15;;
72060;SDS011;59925;52.136;5.420;2023-07-02T02:57:42;11.35;;;4.18;;
72060;SDS011;59925;52.136;5.420;2023-07-02T03:00:09;11.82;;;4.13;;
72060;SDS011;59925;52.136;5.420;2023-07-02T03:02:38;16.03;;;4.50;;
72060;SDS011;59925;52.136;5.420;2023-07-02T03:05:05;14.40;;;4.20;;
72060;SDS011;59925;52.136;5.420;2023-07-02T03:07:32;10.55;;;4.22;;
72060;SDS011;59925;52.136;5.420;2023-07-02T03:09:59;11.32;;;4.07;;
72060;SDS011;59925;52.136;5.420;2023-07-02T03:12:25;11.70;;;4.05;;
72060;SDS011;59925;52.136;5.420;2023-07-02T03:14:52;11.83;;;4.00;;
72060;SDS011;59925;52.136;5.420;2023-07-02T03:17:21;12.50;;;4.10;;
72060;SDS011;59925;52.136;5.420;2023-07-02T03:19:49;13.63;;;4.40;;
72060;SDS011;59925;52.136;5.420;2023-07-02T03:22:16;10.23;;;3.88;;
72060;SDS011;59925;52.136;5.420;2023-07-02T03:24:42;14.98;;;4.38;;
72060;SDS011;59925;52.136;5.420;2023-07-02T03:27:09;13.40;;;4.63;;
72060;SDS011;59925;52.136;5.420;2023-07-02T03:29:36;11.52;;;3.92;;
72060;SDS011;59925;52.136;5.420;2023-07-02T03:32:04;13.15;;;4.43;;
72060;SDS011;59925;52.136;5.420;2023-07-02T03:34:31;13.95;;;4.72;;
72060;SDS011;59925;52.136;5.420;2023-07-02T03:36:58;16.15;;;4.97;;
72060;SDS011;59925;52.136;5.420;2023-07-02T03:39:24;13.17;;;4.40;;
72060;SDS011;59925;52.136;5.420;2023-07-02T03:41:51;14.35;;;4.72;;
72060;SDS011;59925;52.136;5.420;2023-07-02T03:44:18;10.30;;;4.40;;
72060;SDS011;59925;52.136;5.420;2023-07-02T03:46:46;10.93;;;4.18;;
72060;SDS011;59925;52.136;5.420;2023-07-02T03:49:12;13.57;;;5.32;;
72060;SDS011;59925;52.136;5.420;2023-07-02T03:51:39;16.03;;;4.40;;
72060;SDS011;59925;52.136;5.420;2023-07-02T03:54:06;14.57;;;4.63;;
72060;SDS011;59925;52.136;5.420;2023-07-02T03:56:33;12.55;;;4.05;;
72060;SDS011;59925;52.136;5.420;2023-07-02T03:58:59;11.40;;;4.07;;
72060;SDS011;59925;52.136;5.420;2023-07-02T04:01:26;13.68;;;4.78;;
72060;SDS011;59925;52.136;5.420;2023-07-02T04:03:53;12.20;;;4.47;;
72060;SDS011;59925;52.136;5.420;2023-07-02T04:06:20;9.88;;;3.92;;
72060;SDS011;59925;52.136;5.420;2023-07-02T04:08:47;14.23;;;4.60;;
72060;SDS011;59925;52.136;5.420;2023-07-02T04:11:13;12.75;;;4.22;;
72060;SDS011;59925;52.136;5.420;2023-07-02T04:13:40;13.52;;;4.07;;
72060;SDS011;59925;52.136;5.420;2023-07-02T04:16:07;13.50;;;4.43;;
72060;SDS011;59925;52.136;5.420;2023-07-02T04:18:34;15.55;;;4.88;;
72060;SDS011;59925;52.136;5.420;2023-07-02T04:21:01;15.18;;;4.85;;
72060;SDS011;59925;52.136;5.420;2023-07-02T04:23:28;15.85;;;4.13;;
72060;SDS011;59925;52.136;5.420;2023-07-02T04:25:55;15.25;;;4.53;;
72060;SDS011;59925;52.136;5.420;2023-07-02T04:28:42;15.73;;;5.53;;
72060;SDS011;59925;52.136;5.420;2023-07-02T04:31:09;12.52;;;4.60;;
72060;SDS011;59925;52.136;5.420;2023-07-02T04:33:36;11.45;;;4.25;;
72060;SDS011;59925;52.136;5.420;2023-07-02T04:36:03;15.93;;;4.70;;
72060;SDS011;59925;52.136;5.420;2023-07-02T04:38:31;14.65;;;4.35;;
72060;SDS011;59925;52.136;5.420;2023-07-02T04:40:58;15.87;;;4.47;;
72060;SDS011;59925;52.136;5.420;2023-07-02T04:43:28;15.30;;;4.30;;
72060;SDS011;59925;52.136;5.420;2023-07-02T04:45:57;16.08;;;4.50;;
72060;SDS011;59925;52.136;5.420;2023-07-02T04:48:24;12.00;;;4.50;;
72060;SDS011;59925;52.136;5.420;2023-07-02T04:50:51;17.52;;;5.10;;
72060;SDS011;59925;52.136;5.420;2023-07-02T04:53:18;18.00;;;5.30;;
72060;SDS011;59925;52.136;5.420;2023-07-02T04:55:44;13.35;;;4.60;;
72060;SDS011;59925;52.136;5.420;2023-07-02T04:58:11;12.60;;;4.68;;
72060;SDS011;59925;52.136;5.420;2023-07-02T05:00:38;18.27;;;5.25;;
72060;SDS011;59925;52.136;5.420;2023-07-02T05:03:04;12.50;;;4.65;;
72060;SDS011;59925;52.136;5.420;2023-07-02T05:05:31;13.20;;;4.47;;
72060;SDS011;59925;52.136;5.420;2023-07-02T05:08:00;15.23;;;5.53;;
72060;SDS011;59925;52.136;5.420;2023-07-02T05:10:26;13.68;;;4.50;;
72060;SDS011;59925;52.136;5.420;2023-07-02T05:12:53;12.05;;;5.03;;
72060;SDS011;59925;52.136;5.420;2023-07-02T05:15:20;13.35;;;5.15;;
72060;SDS011;59925;52.136;5.420;2023-07-02T05:17:47;21.27;;;5.27;;
72060;SDS011;59925;52.136;5.420;2023-07-02T05:20:13;12.02;;;4.57;;
72060;SDS011;59925;52.136;5.420;2023-07-02T05:22:40;15.85;;;4.55;;
72060;SDS011;59925;52.136;5.420;2023-07-02T05:25:07;18.60;;;5.53;;
72060;SDS011;59925;52.136;5.420;2023-07-02T05:27:34;18.00;;;5.15;;
72060;SDS011;59925;52.136;5.420;2023-07-02T05:30:00;12.93;;;4.40;;
72060;SDS011;59925;52.136;5.420;2023-07-02T05:32:27;17.63;;;4.85;;
72060;SDS011;59925;52.136;5.420;2023-07-02T05:34:54;17.52;;;4.50;;
72060;SDS011;59925;52.136;5.420;2023-07-02T05:37:21;17.65;;;5.10;;
72060;SDS011;59925;52.136;5.420;2023-07-02T05:39:48;14.15;;;5.00;;
72060;SDS011;59925;52.136;5.420;2023-07-02T05:42:14;13.77;;;5.07;;
72060;SDS011;59925;52.136;5.420;2023-07-02T05:44:41;20.20;;;4.88;;
72060;SDS011;59925;52.136;5.420;2023-07-02T05:47:08;17.50;;;5.53;;
72060;SDS011;59925;52.136;5.420;2023-07-02T05:49:34;14.82;;;5.13;;
72060;SDS011;59925;52.136;5.420;2023-07-02T05:52:01;14.25;;;5.38;;
72060;SDS011;59925;52.136;5.420;2023-07-02T05:54:28;11.80;;;4.37;;
72060;SDS011;59925;52.136;5.420;2023-07-02T05:56:54;18.27;;;5.38;;
72060;SDS011;59925;52.136;5.420;2023-07-02T05:59:21;15.95;;;4.50;;
72060;SDS011;59925;52.136;5.420;2023-07-02T06:01:47;14.05;;;4.68;;
72060;SDS011;59925;52.136;5.420;2023-07-02T06:04:15;17.73;;;5.20;;
72060;SDS011;59925;52.136;5.420;2023-07-02T06:06:42;13.23;;;4.70;;
72060;SDS011;59925;52.136;5.420;2023-07-02T06:09:10;15.82;;;4.78;;
72060;SDS011;59925;52.136;5.420;2023-07-02T06:11:36;14.27;;;4.63;;
72060;SDS011;59925;52.136;5.420;2023-07-02T06:14:04;17.02;;;5.25;;
72060;SDS011;59925;52.136;5.420;2023-07-02T06:16:30;14.90;;;4.68;;
72060;SDS011;59925;52.136;5.420;2023-07-02T06:18:57;12.37;;;4.97;;
72060;SDS011;59925;52.136;5.420;2023-07-02T06:21:24;11.93;;;4.22;;
72060;SDS011;59925;52.136;5.420;2023-07-02T06:23:56;15.20;;;4.65;;
72060;SDS011;59925;52.136;5.420;2023-07-02T06:26:24;13.30;;;4.40;;
72060;SDS011;59925;52.136;5.420;2023-07-02T06:28:50;14.23;;;4.63;;
72060;SDS011;59925;52.136;5.420;2023-07-02T06:31:17;15.67;;;4.77;;
72060;SDS011;59925;52.136;5.420;2023-07-02T06:33:44;12.98;;;4.10;;
72060;SDS011;59925;52.136;5.420;2023-07-02T06:36:11;15.80;;;5.10;;
72060;SDS011;59925;52.136;5.420;2023-07-02T06:38:42;13.60;;;4.60;;
72060;SDS011;59925;52.136;5.420;2023-07-02T06:41:09;11.48;;;4.15;;
72060;SDS011;59925;52.136;5.420;2023-07-02T06:43:36;16.40;;;4.07;;
72060;SDS011;59925;52.136;5.420;2023-07-02T06:46:02;11.23;;;3.50;;
72060;SDS011;59925;52.136;5.420;2023-07-02T06:48:31;9.98;;;3.88;;
72060;SDS011;59925;52.136;5.420;2023-07-02T06:50:57;8.07;;;3.33;;
72060;SDS011;59925;52.136;5.420;2023-07-02T06:53:24;15.02;;;4.03;;
72060;SDS011;59925;52.136;5.420;2023-07-02T06:55:50;12.00;;;3.93;;
72060;SDS011;59925;52.136;5.420;2023-07-02T06:58:17;13.57;;;4.20;;
72060;SDS011;59925;52.136;5.420;2023-07-02T07:00:44;14.90;;;3.65;;
72060;SDS011;59925;52.136;5.420;2023-07-02T07:03:10;11.73;;;4.03;;
72060;SDS011;59925;52.136;5.420;2023-07-02T07:05:38;11.18;;;3.35;;
72060;SDS011;59925;52.136;5.420;2023-07-02T07:08:04;11.77;;;3.73;;
72060;SDS011;59925;52.136;5.420;2023-07-02T07:10:31;13.30;;;3.72;;
72060;SDS011;59925;52.136;5.420;2023-07-02T07:13:01;17.85;;;4.43;;
72060;SDS011;59925;52.136;5.420;2023-07-02T07:15:32;12.65;;;3.72;;
72060;SDS011;59925;52.136;5.420;2023-07-02T07:18:01;9.68;;;3.35;;
72060;SDS011;59925;52.136;5.420;2023-07-02T07:20:28;12.20;;;3.83;;
72060;SDS011;59925;52.136;5.420;2023-07-02T07:22:56;9.57;;;3.63;;
72060;SDS011;59925;52.136;5.420;2023-07-02T07:25:23;12.77;;;4.18;;
72060;SDS011;59925;52.136;5.420;2023-07-02T07:27:51;15.65;;;3.88;;
72060;SDS011;59925;52.136;5.420;2023-07-02T07:30:18;10.05;;;3.40;;
72060;SDS011;59925;52.136;5.420;2023-07-02T07:32:49;11.27;;;3.63;;
72060;SDS011;59925;52.136;5.420;2023-07-02T07:35:17;10.77;;;3.70;;
72060;SDS011;59925;52.136;5.420;2023-07-02T07:37:44;10.60;;;3.38;;
72060;SDS011;59925;52.136;5.420;2023-07-02T07:40:11;17.33;;;3.72;;
72060;SDS011;59925;52.136;5.420;2023-07-02T07:42:38;10.35;;;3.30;;
72060;SDS011;59925;52.136;5.420;2023-07-02T07:45:05;7.47;;;3.10;;
72060;SDS011;59925;52.136;5.420;2023-07-02T07:47:32;9.85;;;3.20;;
72060;SDS011;59925;52.136;5.420;2023-07-02T07:49:58;7.63;;;3.30;;
72060;SDS011;59925;52.136;5.420;2023-07-02T07:52:25;11.98;;;3.75;;
72060;SDS011;59925;52.136;5.420;2023-07-02T07:54:52;12.40;;;3.50;;
72060;SDS011;59925;52.136;5.420;2023-07-02T07:57:19;11.90;;;2.90;;
72060;SDS011;59925;52.136;5.420;2023-07-02T07:59:45;7.40;;;2.60;;
72060;SDS011;59925;52.136;5.420;2023-07-02T08:02:12;10.65;;;3.10;;
72060;SDS011;59925;52.136;5.420;2023-07-02T08:04:39;7.88;;;2.60;;
72060;SDS011;59925;52.136;5.420;2023-07-02T08:07:05;10.00;;;3.30;;
72060;SDS011;59925;52.136;5.420;2023-07-02T08:09:34;12.67;;;3.23;;
72060;SDS011;59925;52.136;5.420;2023-07-02T08:12:01;5.82;;;2.30;;
72060;SDS011;59925;52.136;5.420;2023-07-02T08:14:29;12.75;;;3.03;;
72060;SDS011;59925;52.136;5.420;2023-07-02T08:16:56;11.05;;;3.20;;
72060;SDS011;59925;52.136;5.420;2023-07-02T08:19:22;8.40;;;3.30;;
72060;SDS011;59925;52.136;5.420;2023-07-02T08:21:53;10.23;;;3.10;;
72060;SDS011;59925;52.136;5.420;2023-07-02T08:24:20;9.93;;;3.33;;
72060;SDS011;59925;52.136;5.420;2023-07-02T08:26:46;12.43;;;4.07;;
72060;SDS011;59925;52.136;5.420;2023-07-02T08:29:15;12.65;;;2.90;;
72060;SDS011;59925;52.136;5.420;2023-07-02T08:31:42;10.38;;;2.95;;
72060;SDS011;59925;52.136;5.420;2023-07-02T08:34:09;12.53;;;3.67;;
72060;SDS011;59925;52.136;5.420;2023-07-02T08:36:36;7.90;;;2.95;;
72060;SDS011;59925;52.136;5.420;2023-07-02T08:39:02;12.32;;;3.63;;
72060;SDS011;59925;52.136;5.420;2023-07-02T08:41:30;9.48;;;2.85;;
72060;SDS011;59925;52.136;5.420;2023-07-02T08:43:57;9.95;;;3.22;;
72060;SDS011;59925;52.136;5.420;2023-07-02T08:46:25;9.80;;;3.20;;
72060;SDS011;59925;52.136;5.420;2023-07-02T08:48:52;11.40;;;3.55;;
72060;SDS011;59925;52.136;5.420;2023-07-02T08:51:18;11.35;;;2.88;;
72060;SDS011;59925;52.136;5.420;2023-07-02T08:53:47;13.35;;;3.80;;
72060;SDS011;59925;52.136;5.420;2023-07-02T08:56:14;7.28;;;2.78;;
72060;SDS011;59925;52.136;5.420;2023-07-02T08:58:40;13.13;;;3.23;;
72060;SDS011;59925;52.136;5.420;2023-07-02T09:01:07;11.43;;;3.88;;
72060;SDS011;59925;52.136;5.420;2023-07-02T09:03:35;9.65;;;2.95;;
72060;SDS011;59925;52.136;5.420;2023-07-02T09:06:09;10.82;;;3.03;;
72060;SDS011;59925;52.136;5.420;2023-07-02T09:08:38;9.95;;;3.15;;
72060;SDS011;59925;52.136;5.420;2023-07-02T09:11:15;7.03;;;2.77;;
72060;SDS011;59925;52.136;5.420;2023-07-02T09:16:20;7.78;;;2.40;;
72060;SDS011;59925;52.136;5.420;2023-07-02T09:18:58;10.30;;;3.30;;
72060;SDS011;59925;52.136;5.420;2023-07-02T09:24:18;6.53;;;2.40;;
72060;SDS011;59925;52.136;5.420;2023-07-02T09:26:47;8.98;;;2.78;;
72060;SDS011;59925;52.136;5.420;2023-07-02T09:29:18;8.65;;;3.05;;
72060;SDS011;59925;52.136;5.420;2023-07-02T09:31:48;11.20;;;2.67;;
72060;SDS011;59925;52.136;5.420;2023-07-02T09:34:35;7.60;;;2.30;;
72060;SDS011;59925;52.136;5.420;2023-07-02T09:37:03;6.17;;;2.03;;
72060;SDS011;59925;52.136;5.420;2023-07-02T09:39:34;8.95;;;2.30;;
72060;SDS011;59925;52.136;5.420;2023-07-02T09:42:06;9.73;;;2.10;;
72060;SDS011;59925;52.136;5.420;2023-07-02T09:44:34;7.15;;;2.10;;
72060;SDS011;59925;52.136;5.420;2023-07-02T09:47:02;7.40;;;1.90;;
72060;SDS011;59925;52.136;5.420;2023-07-02T09:49:37;5.27;;;1.90;;
72060;SDS011;59925;52.136;5.420;2023-07-02T09:52:09;5.80;;;2.40;;
72060;SDS011;59925;52.136;5.420;2023-07-02T09:54:37;9.23;;;2.35;;
72060;SDS011;59925;52.136;5.420;2023-07-02T09:57:04;6.60;;;2.03;;
72060;SDS011;59925;52.136;5.420;2023-07-02T09:59:35;5.93;;;1.92;;
72060;SDS011;59925;52.136;5.420;2023-07-02T10:02:01;6.30;;;2.47;;
72060;SDS011;59925;52.136;5.420;2023-07-02T10:04:38;4.30;;;2.10;;
72060;SDS011;59925;52.136;5.420;2023-07-02T10:07:06;4.57;;;2.08;;
72060;SDS011;59925;52.136;5.420;2023-07-02T10:09:40;4.38;;;2.10;;
72060;SDS011;59925;52.136;5.420;2023-07-02T10:14:53;3.60;;;1.70;;
72060;SDS011;59925;52.136;5.420;2023-07-02T10:17:27;6.60;;;1.95;;
72060;SDS011;59925;52.136;5.420;2023-07-02T10:19:56;6.03;;;1.90;;
72060;SDS011;59925;52.136;5.420;2023-07-02T10:22:25;4.13;;;1.80;;
72060;SDS011;59925;52.136;5.420;2023-07-02T10:24:55;4.47;;;1.42;;
72060;SDS011;59925;52.136;5.420;2023-07-02T10:27:32;3.50;;;1.40;;
72060;SDS011;59925;52.136;5.420;2023-07-02T10:30:03;5.68;;;1.90;;
72060;SDS011;59925;52.136;5.420;2023-07-02T10:32:32;6.00;;;1.85;;
72060;SDS011;59925;52.136;5.420;2023-07-02T10:35:01;4.13;;;1.77;;
72060;SDS011;59925;52.136;5.420;2023-07-02T10:37:36;3.45;;;1.77;;
72060;SDS011;59925;52.136;5.420;2023-07-02T10:40:05;6.40;;;1.70;;
72060;SDS011;59925;52.136;5.420;2023-07-02T10:42:33;4.70;;;1.60;;
72060;SDS011;59925;52.136;5.420;2023-07-02T10:45:02;3.95;;;1.77;;
72060;SDS011;59925;52.136;5.420;2023-07-02T10:47:29;8.05;;;2.40;;
72060;SDS011;59925;52.136;5.420;2023-07-02T10:49:56;5.68;;;2.20;;
72060;SDS011;59925;52.136;5.420;2023-07-02T10:52:23;6.87;;;2.43;;
72060;SDS011;59925;52.136;5.420;2023-07-02T10:54:49;6.35;;;2.00;;
72060;SDS011;59925;52.136;5.420;2023-07-02T10:57:17;5.53;;;2.10;;
72060;SDS011;59925;52.136;5.420;2023-07-02T10:59:48;7.18;;;1.88;;
72060;SDS011;59925;52.136;5.420;2023-07-02T11:02:15;6.35;;;2.22;;
72060;SDS011;59925;52.136;5.420;2023-07-02T11:04:42;5.30;;;2.23;;
72060;SDS011;59925;52.136;5.420;2023-07-02T11:07:09;8.15;;;2.08;;
72060;SDS011;59925;52.136;5.420;2023-07-02T11:09:37;5.78;;;2.10;;
72060;SDS011;59925;52.136;5.420;2023-07-02T11:12:04;6.35;;;1.98;;
72060;SDS011;59925;52.136;5.420;2023-07-02T11:14:31;8.85;;;2.40;;
72060;SDS011;59925;52.136;5.420;2023-07-02T11:17:01;5.73;;;2.30;;
72060;SDS011;59925;52.136;5.420;2023-07-02T11:19:34;6.40;;;2.17;;
72060;SDS011;59925;52.136;5.420;2023-07-02T11:22:02;4.40;;;1.80;;
72060;SDS011;59925;52.136;5.420;2023-07-02T11:24:33;6.72;;;1.73;;
72060;SDS011;59925;52.136;5.420;2023-07-02T11:27:01;7.00;;;2.10;;
72060;SDS011;59925;52.136;5.420;2023-07-02T11:29:30;9.43;;;2.10;;
72060;SDS011;59925;52.136;5.420;2023-07-02T11:32:10;7.20;;;2.33;;
72060;SDS011;59925;52.136;5.420;2023-07-02T11:34:38;5.32;;;2.03;;
72060;SDS011;59925;52.136;5.420;2023-07-02T11:37:05;7.25;;;2.30;;
72060;SDS011;59925;52.136;5.420;2023-07-02T11:39:32;6.38;;;2.58;;
72060;SDS011;59925;52.136;5.420;2023-07-02T11:41:58;4.17;;;2.00;;
72060;SDS011;59925;52.136;5.420;2023-07-02T11:44:25;5.32;;;2.33;;
72060;SDS011;59925;52.136;5.420;2023-07-02T11:46:52;6.40;;;3.08;;
72060;SDS011;59925;52.136;5.420;2023-07-02T11:49:19;5.60;;;2.50;;
72060;SDS011;59925;52.136;5.420;2023-07-02T11:51:46;5.00;;;2.42;;
72060;SDS011;59925;52.136;5.420;2023-07-02T11:54:15;4.77;;;2.23;;
72060;SDS011;59925;52.136;5.420;2023-07-02T11:56:44;7.30;;;2.55;;
72060;SDS011;59925;52.136;5.420;2023-07-02T11:59:11;5.22;;;2.17;;
72060;SDS011;59925;52.136;5.420;2023-07-02T12:01:37;5.55;;;2.80;;
72060;SDS011;59925;52.136;5.420;2023-07-02T12:04:04;6.25;;;2.45;;
72060;SDS011;59925;52.136;5.420;2023-07-02T12:06:31;6.20;;;2.10;;
72060;SDS011;59925;52.136;5.420;2023-07-02T12:08:59;5.68;;;2.20;;
72060;SDS011;59925;52.136;5.420;2023-07-02T12:11:25;9.40;;;2.50;;
72060;SDS011;59925;52.136;5.420;2023-07-02T12:13:52;3.97;;;2.10;;
72060;SDS011;59925;52.136;5.420;2023-07-02T12:16:19;7.97;;;2.55;;
72060;SDS011;59925;52.136;5.420;2023-07-02T12:18:45;5.10;;;2.40;;
72060;SDS011;59925;52.136;5.420;2023-07-02T12:21:12;7.40;;;2.92;;
72060;SDS011;59925;52.136;5.420;2023-07-02T12:23:38;5.00;;;2.60;;
72060;SDS011;59925;52.136;5.420;2023-07-02T12:26:05;7.38;;;2.65;;
72060;SDS011;59925;52.136;5.420;2023-07-02T12:28:31;6.97;;;2.30;;
72060;SDS011;59925;52.136;5.420;2023-07-02T12:30:58;6.00;;;2.53;;
72060;SDS011;59925;52.136;5.420;2023-07-02T12:33:26;6.00;;;2.65;;
72060;SDS011;59925;52.136;5.420;2023-07-02T12:35:52;5.85;;;2.50;;
72060;SDS011;59925;52.136;5.420;2023-07-02T12:38:19;7.40;;;2.58;;
72060;SDS011;59925;52.136;5.420;2023-07-02T12:40:46;6.47;;;2.50;;
72060;SDS011;59925;52.136;5.420;2023-07-02T12:43:12;6.70;;;2.93;;
72060;SDS011;59925;52.136;5.420;2023-07-02T12:45:39;7.20;;;2.97;;
72060;SDS011;59925;52.136;5.420;2023-07-02T12:48:05;6.43;;;2.47;;
72060;SDS011;59925;52.136;5.420;2023-07-02T12:50:32;6.03;;;2.88;;
72060;SDS011;59925;52.136;5.420;2023-07-02T12:52:59;7.82;;;2.97;;
72060;SDS011;59925;52.136;5.420;2023-07-02T12:55:25;6.07;;;2.90;;
72060;SDS011;59925;52.136;5.420;2023-07-02T12:57:52;6.10;;;2.67;;
72060;SDS011;59925;52.136;5.420;2023-07-02T13:00:19;7.10;;;3.00;;
72060;SDS011;59925;52.136;5.420;2023-07-02T13:02:48;9.02;;;2.88;;
72060;SDS011;59925;52.136;5.420;2023-07-02T13:05:29;6.05;;;3.28;;
72060;SDS011;59925;52.136;5.420;2023-07-02T13:07:56;5.40;;;2.40;;
72060;SDS011;59925;52.136;5.420;2023-07-02T13:10:22;8.18;;;2.65;;
72060;SDS011;59925;52.136;5.420;2023-07-02T13:12:49;8.15;;;3.08;;
72060;SDS011;59925;52.136;5.420;2023-07-02T13:15:15;6.72;;;2.70;;
72060;SDS011;59925;52.136;5.420;2023-07-02T13:17:42;7.25;;;3.13;;
72060;SDS011;59925;52.136;5.420;2023-07-02T13:20:10;5.23;;;2.40;;
72060;SDS011;59925;52.136;5.420;2023-07-02T13:22:36;9.95;;;3.30;;
72060;SDS011;59925;52.136;5.420;2023-07-02T13:25:04;8.23;;;3.03;;
72060;SDS011;59925;52.136;5.420;2023-07-02T13:27:31;6.68;;;2.60;;
72060;SDS011;59925;52.136;5.420;2023-07-02T13:29:58;4.40;;;2.30;;
72060;SDS011;59925;52.136;5.420;2023-07-02T13:32:25;4.10;;;2.27;;
72060;SDS011;59925;52.136;5.420;2023-07-02T13:34:55;8.35;;;3.10;;
72060;SDS011;59925;52.136;5.420;2023-07-02T13:37:21;7.60;;;2.90;;
72060;SDS011;59925;52.136;5.420;2023-07-02T13:39:48;6.85;;;2.72;;
72060;SDS011;59925;52.136;5.420;2023-07-02T13:42:15;7.18;;;2.90;;
72060;SDS011;59925;52.136;5.420;2023-07-02T13:44:42;8.97;;;2.87;;
72060;SDS011;59925;52.136;5.420;2023-07-02T13:47:09;7.45;;;2.70;;
72060;SDS011;59925;52.136;5.420;2023-07-02T13:49:37;7.25;;;3.03;;
72060;SDS011;59925;52.136;5.420;2023-07-02T13:52:04;6.07;;;2.70;;
72060;SDS011;59925;52.136;5.420;2023-07-02T13:54:31;7.55;;;3.00;;
72060;SDS011;59925;52.136;5.420;2023-07-02T13:57:02;6.00;;;3.10;;
72060;SDS011;59925;52.136;5.420;2023-07-02T13:59:29;5.85;;;2.90;;
72060;SDS011;59925;52.136;5.420;2023-07-02T14:01:56;8.95;;;3.15;;
72060;SDS011;59925;52.136;5.420;2023-07-02T14:04:23;7.57;;;3.20;;
72060;SDS011;59925;52.136;5.420;2023-07-02T14:06:50;6.32;;;2.65;;
72060;SDS011;59925;52.136;5.420;2023-07-02T14:09:16;5.63;;;2.97;;
72060;SDS011;59925;52.136;5.420;2023-07-02T14:11:43;6.93;;;3.15;;
72060;SDS011;59925;52.136;5.420;2023-07-02T14:14:10;5.95;;;2.58;;
72060;SDS011;59925;52.136;5.420;2023-07-02T14:16:37;6.30;;;2.70;;
72060;SDS011;59925;52.136;5.420;2023-07-02T14:19:03;7.40;;;3.10;;
72060;SDS011;59925;52.136;5.420;2023-07-02T14:21:30;7.40;;;2.83;;
72060;SDS011;59925;52.136;5.420;2023-07-02T14:23:57;7.90;;;2.95;;
72060;SDS011;59925;52.136;5.420;2023-07-02T14:26:24;6.95;;;3.42;;
72060;SDS011;59925;52.136;5.420;2023-07-02T14:28:52;8.10;;;3.13;;
72060;SDS011;59925;52.136;5.420;2023-07-02T14:31:19;8.00;;;3.30;;
72060;SDS011;59925;52.136;5.420;2023-07-02T14:33:45;9.47;;;3.70;;
72060;SDS011;59925;52.136;5.420;2023-07-02T14:36:12;9.90;;;3.20;;
72060;SDS011;59925;52.136;5.420;2023-07-02T14:38:38;6.00;;;3.00;;
72060;SDS011;59925;52.136;5.420;2023-07-02T14:41:05;6.20;;;3.45;;
72060;SDS011;59925;52.136;5.420;2023-07-02T14:43:32;8.20;;;3.38;;
72060;SDS011;59925;52.136;5.420;2023-07-02T14:45:59;6.50;;;3.33;;
72060;SDS011;59925;52.136;5.420;2023-07-02T14:48:27;7.38;;;3.20;;
72060;SDS011;59925;52.136;5.420;2023-07-02T14:50:55;6.68;;;3.05;;
72060;SDS011;59925;52.136;5.420;2023-07-02T14:53:27;8.00;;;2.80;;
72060;SDS011;59925;52.136;5.420;2023-07-02T14:55:57;4.78;;;2.67;;
72060;SDS011;59925;52.136;5.420;2023-07-02T14:58:25;6.40;;;3.10;;